sensor_id;sensor_type;location;lat;lon;timestamp;P1;durP1;ratioP1;P2;durP2;ratioP2
68866;SDS011;56451;44.804;20.476;2022-11-30T00:02:20;8.17;;;5.23;;
68866;SDS011;56451;44.804;20.476;2022-11-30T00:04:49;11.20;;;6.93;;
68866;SDS011;56451;44.804;20.476;2022-11-30T00:07:20;10.80;;;6.07;;
68866;SDS011;56451;44.804;20.476;2022-11-30T00:09:51;9.27;;;5.20;;
68866;SDS011;56451;44.804;20.476;2022-11-30T00:15:30;5.80;;;3.83;;
68866;SDS011;56451;44.804;20.476;2022-11-30T00:21:21;7.82;;;5.07;;
68866;SDS011;56451;44.804;20.476;2022-11-30T00:24:00;8.38;;;4.15;;
68866;SDS011;56451;44.804;20.476;2022-11-30T00:26:43;8.50;;;4.95;;
68866;SDS011;56451;44.804;20.476;2022-11-30T00:29:32;5.33;;;3.40;;
68866;SDS011;56451;44.804;20.476;2022-11-30T00:32:17;6.10;;;3.58;;
68866;SDS011;56451;44.804;20.476;2022-11-30T00:35:09;6.93;;;3.35;;
68866;SDS011;56451;44.804;20.476;2022-11-30T00:37:52;5.22;;;2.90;;
68866;SDS011;56451;44.804;20.476;2022-11-30T00:40:32;7.45;;;3.22;;
68866;SDS011;56451;44.804;20.476;2022-11-30T00:43:13;6.83;;;3.10;;
68866;SDS011;56451;44.804;20.476;2022-11-30T00:46:04;5.93;;;3.08;;
68866;SDS011;56451;44.804;20.476;2022-11-30T00:48:53;5.90;;;3.03;;
68866;SDS011;56451;44.804;20.476;2022-11-30T00:51:40;5.65;;;3.08;;
68866;SDS011;56451;44.804;20.476;2022-11-30T00:54:22;5.57;;;2.80;;
68866;SDS011;56451;44.804;20.476;2022-11-30T00:57:10;6.70;;;3.37;;
68866;SDS011;56451;44.804;20.476;2022-11-30T00:59:45;7.07;;;3.50;;
68866;SDS011;56451;44.804;20.476;2022-11-30T01:02:34;7.03;;;3.65;;
68866;SDS011;56451;44.804;20.476;2022-11-30T01:05:12;5.78;;;3.40;;
68866;SDS011;56451;44.804;20.476;2022-11-30T01:07:58;6.15;;;3.50;;
68866;SDS011;56451;44.804;20.476;2022-11-30T01:10:35;7.10;;;3.50;;
68866;SDS011;56451;44.804;20.476;2022-11-30T01:13:24;6.90;;;3.10;;
68866;SDS011;56451;44.804;20.476;2022-11-30T01:16:16;5.50;;;2.97;;
68866;SDS011;56451;44.804;20.476;2022-11-30T01:19:17;5.60;;;3.20;;
68866;SDS011;56451;44.804;20.476;2022-11-30T01:21:48;4.07;;;2.42;;
68866;SDS011;56451;44.804;20.476;2022-11-30T01:24:19;3.87;;;2.50;;
68866;SDS011;56451;44.804;20.476;2022-11-30T01:26:50;4.88;;;2.53;;
68866;SDS011;56451;44.804;20.476;2022-11-30T01:29:21;4.90;;;2.38;;
68866;SDS011;56451;44.804;20.476;2022-11-30T01:31:52;5.90;;;2.42;;
68866;SDS011;56451;44.804;20.476;2022-11-30T01:34:24;3.88;;;2.13;;
68866;SDS011;56451;44.804;20.476;2022-11-30T01:36:56;3.93;;;2.20;;
68866;SDS011;56451;44.804;20.476;2022-11-30T01:39:24;4.07;;;2.15;;
68866;SDS011;56451;44.804;20.476;2022-11-30T01:41:54;3.75;;;2.25;;
68866;SDS011;56451;44.804;20.476;2022-11-30T01:49:38;3.17;;;1.57;;
68866;SDS011;56451;44.804;20.476;2022-11-30T01:52:20;2.92;;;1.83;;
68866;SDS011;56451;44.804;20.476;2022-11-30T01:54:55;3.00;;;1.52;;
68866;SDS011;56451;44.804;20.476;2022-11-30T01:57:38;2.88;;;1.67;;
68866;SDS011;56451;44.804;20.476;2022-11-30T02:00:20;4.50;;;1.88;;
68866;SDS011;56451;44.804;20.476;2022-11-30T02:05:52;2.90;;;1.55;;
68866;SDS011;56451;44.804;20.476;2022-11-30T02:08:22;2.95;;;1.70;;
68866;SDS011;56451;44.804;20.476;2022-11-30T02:10:54;3.63;;;1.85;;
68866;SDS011;56451;44.804;20.476;2022-11-30T02:13:43;4.38;;;1.80;;
68866;SDS011;56451;44.804;20.476;2022-11-30T02:30:33;3.43;;;1.67;;
68866;SDS011;56451;44.804;20.476;2022-11-30T02:33:10;4.03;;;1.90;;
68866;SDS011;56451;44.804;20.476;2022-11-30T02:35:45;4.75;;;2.50;;
68866;SDS011;56451;44.804;20.476;2022-11-30T02:38:19;3.70;;;1.75;;
68866;SDS011;56451;44.804;20.476;2022-11-30T02:40:53;3.92;;;2.10;;
68866;SDS011;56451;44.804;20.476;2022-11-30T02:43:23;5.17;;;2.00;;
68866;SDS011;56451;44.804;20.476;2022-11-30T02:51:20;4.60;;;1.80;;
68866;SDS011;56451;44.804;20.476;2022-11-30T02:53:54;7.70;;;3.15;;
68866;SDS011;56451;44.804;20.476;2022-11-30T02:56:26;4.30;;;1.83;;
68866;SDS011;56451;44.804;20.476;2022-11-30T02:58:57;2.25;;;1.60;;
68866;SDS011;56451;44.804;20.476;2022-11-30T03:01:27;2.15;;;1.35;;
68866;SDS011;56451;44.804;20.476;2022-11-30T03:03:59;2.80;;;1.60;;
68866;SDS011;56451;44.804;20.476;2022-11-30T03:06:29;8.40;;;3.35;;
68866;SDS011;56451;44.804;20.476;2022-11-30T03:08:59;4.63;;;2.33;;
68866;SDS011;56451;44.804;20.476;2022-11-30T03:11:26;3.20;;;1.70;;
68866;SDS011;56451;44.804;20.476;2022-11-30T03:13:57;3.33;;;1.55;;
68866;SDS011;56451;44.804;20.476;2022-11-30T03:16:27;4.38;;;2.10;;
68866;SDS011;56451;44.804;20.476;2022-11-30T03:18:58;5.38;;;1.60;;
68866;SDS011;56451;44.804;20.476;2022-11-30T03:21:28;3.97;;;1.40;;
68866;SDS011;56451;44.804;20.476;2022-11-30T03:23:59;3.17;;;1.38;;
68866;SDS011;56451;44.804;20.476;2022-11-30T03:26:27;2.17;;;1.40;;
68866;SDS011;56451;44.804;20.476;2022-11-30T03:29:04;2.55;;;1.40;;
68866;SDS011;56451;44.804;20.476;2022-11-30T03:31:32;2.35;;;1.20;;
68866;SDS011;56451;44.804;20.476;2022-11-30T03:34:03;2.37;;;1.37;;
68866;SDS011;56451;44.804;20.476;2022-11-30T03:36:31;6.25;;;2.28;;
68866;SDS011;56451;44.804;20.476;2022-11-30T03:39:02;2.80;;;1.60;;
68866;SDS011;56451;44.804;20.476;2022-11-30T03:41:31;2.58;;;1.40;;
68866;SDS011;56451;44.804;20.476;2022-11-30T03:44:00;3.40;;;1.83;;
68866;SDS011;56451;44.804;20.476;2022-11-30T03:46:30;3.50;;;1.20;;
68866;SDS011;56451;44.804;20.476;2022-11-30T03:48:56;2.95;;;1.55;;
68866;SDS011;56451;44.804;20.476;2022-11-30T03:51:30;2.80;;;1.35;;
68866;SDS011;56451;44.804;20.476;2022-11-30T03:54:06;3.53;;;1.90;;
68866;SDS011;56451;44.804;20.476;2022-11-30T03:56:41;2.22;;;1.40;;
68866;SDS011;56451;44.804;20.476;2022-11-30T03:59:11;2.07;;;1.43;;
68866;SDS011;56451;44.804;20.476;2022-11-30T04:01:37;10.73;;;3.28;;
68866;SDS011;56451;44.804;20.476;2022-11-30T04:04:10;5.93;;;1.63;;
68866;SDS011;56451;44.804;20.476;2022-11-30T04:06:39;2.67;;;1.20;;
68866;SDS011;56451;44.804;20.476;2022-11-30T04:09:08;3.05;;;1.30;;
68866;SDS011;56451;44.804;20.476;2022-11-30T04:11:35;2.47;;;1.23;;
68866;SDS011;56451;44.804;20.476;2022-11-30T04:14:05;2.75;;;0.95;;
68866;SDS011;56451;44.804;20.476;2022-11-30T04:16:34;1.45;;;0.90;;
68866;SDS011;56451;44.804;20.476;2022-11-30T04:19:02;2.42;;;0.77;;
68866;SDS011;56451;44.804;20.476;2022-11-30T04:21:33;2.45;;;0.98;;
68866;SDS011;56451;44.804;20.476;2022-11-30T04:24:03;0.93;;;0.67;;
68866;SDS011;56451;44.804;20.476;2022-11-30T04:26:33;1.75;;;0.90;;
68866;SDS011;56451;44.804;20.476;2022-11-30T04:29:00;2.15;;;0.98;;
68866;SDS011;56451;44.804;20.476;2022-11-30T04:31:31;1.23;;;0.50;;
68866;SDS011;56451;44.804;20.476;2022-11-30T04:34:02;1.88;;;0.80;;
68866;SDS011;56451;44.804;20.476;2022-11-30T04:36:35;1.73;;;0.77;;
68866;SDS011;56451;44.804;20.476;2022-11-30T04:39:10;1.17;;;0.60;;
68866;SDS011;56451;44.804;20.476;2022-11-30T04:41:40;2.03;;;0.70;;
68866;SDS011;56451;44.804;20.476;2022-11-30T04:44:12;1.75;;;0.60;;
68866;SDS011;56451;44.804;20.476;2022-11-30T04:46:43;2.03;;;0.77;;
68866;SDS011;56451;44.804;20.476;2022-11-30T04:49:15;1.53;;;0.70;;
68866;SDS011;56451;44.804;20.476;2022-11-30T04:51:45;2.20;;;0.88;;
68866;SDS011;56451;44.804;20.476;2022-11-30T04:54:18;1.08;;;0.60;;
68866;SDS011;56451;44.804;20.476;2022-11-30T04:56:52;1.67;;;0.60;;
68866;SDS011;56451;44.804;20.476;2022-11-30T04:59:28;1.60;;;0.65;;
68866;SDS011;56451;44.804;20.476;2022-11-30T05:02:00;1.20;;;0.47;;
68866;SDS011;56451;44.804;20.476;2022-11-30T05:04:29;2.53;;;1.08;;
68866;SDS011;56451;44.804;20.476;2022-11-30T05:07:03;3.03;;;1.67;;
68866;SDS011;56451;44.804;20.476;2022-11-30T05:09:34;3.47;;;1.75;;
68866;SDS011;56451;44.804;20.476;2022-11-30T05:12:05;2.83;;;1.30;;
68866;SDS011;56451;44.804;20.476;2022-11-30T05:14:37;2.63;;;0.87;;
68866;SDS011;56451;44.804;20.476;2022-11-30T05:17:06;2.47;;;0.85;;
68866;SDS011;56451;44.804;20.476;2022-11-30T05:19:36;3.40;;;0.90;;
68866;SDS011;56451;44.804;20.476;2022-11-30T05:22:06;1.80;;;0.95;;
68866;SDS011;56451;44.804;20.476;2022-11-30T05:24:36;2.58;;;0.75;;
68866;SDS011;56451;44.804;20.476;2022-11-30T05:27:04;2.23;;;0.90;;
68866;SDS011;56451;44.804;20.476;2022-11-30T05:29:35;2.30;;;0.70;;
68866;SDS011;56451;44.804;20.476;2022-11-30T05:32:07;1.70;;;0.80;;
68866;SDS011;56451;44.804;20.476;2022-11-30T05:34:36;1.40;;;0.60;;
68866;SDS011;56451;44.804;20.476;2022-11-30T05:37:08;1.60;;;0.55;;
68866;SDS011;56451;44.804;20.476;2022-11-30T05:39:35;1.60;;;0.70;;
68866;SDS011;56451;44.804;20.476;2022-11-30T05:42:05;1.42;;;0.68;;
68866;SDS011;56451;44.804;20.476;2022-11-30T05:44:36;3.47;;;0.70;;
68866;SDS011;56451;44.804;20.476;2022-11-30T05:47:07;3.80;;;0.80;;
68866;SDS011;56451;44.804;20.476;2022-11-30T05:49:38;2.45;;;0.65;;
68866;SDS011;56451;44.804;20.476;2022-11-30T05:52:08;3.13;;;0.93;;
68866;SDS011;56451;44.804;20.476;2022-11-30T05:54:36;3.00;;;0.90;;
68866;SDS011;56451;44.804;20.476;2022-11-30T05:57:08;1.88;;;0.73;;
68866;SDS011;56451;44.804;20.476;2022-11-30T05:59:41;2.15;;;0.70;;
68866;SDS011;56451;44.804;20.476;2022-11-30T06:02:08;2.05;;;0.60;;
68866;SDS011;56451;44.804;20.476;2022-11-30T06:04:40;2.13;;;0.87;;
68866;SDS011;56451;44.804;20.476;2022-11-30T06:07:13;2.67;;;0.90;;
68866;SDS011;56451;44.804;20.476;2022-11-30T06:09:47;2.38;;;1.17;;
68866;SDS011;56451;44.804;20.476;2022-11-30T06:12:12;2.42;;;1.08;;
68866;SDS011;56451;44.804;20.476;2022-11-30T06:14:38;4.27;;;1.30;;
68866;SDS011;56451;44.804;20.476;2022-11-30T06:17:08;2.35;;;0.82;;
68866;SDS011;56451;44.804;20.476;2022-11-30T06:20:03;3.70;;;0.90;;
68866;SDS011;56451;44.804;20.476;2022-11-30T06:22:37;1.95;;;0.77;;
68866;SDS011;56451;44.804;20.476;2022-11-30T06:25:06;2.45;;;1.00;;
68866;SDS011;56451;44.804;20.476;2022-11-30T06:27:37;4.00;;;1.10;;
68866;SDS011;56451;44.804;20.476;2022-11-30T06:30:08;2.80;;;1.00;;
68866;SDS011;56451;44.804;20.476;2022-11-30T06:32:38;2.38;;;1.00;;
68866;SDS011;56451;44.804;20.476;2022-11-30T06:35:07;4.35;;;0.85;;
68866;SDS011;56451;44.804;20.476;2022-11-30T06:37:37;1.70;;;0.90;;
68866;SDS011;56451;44.804;20.476;2022-11-30T06:40:12;2.80;;;0.90;;
68866;SDS011;56451;44.804;20.476;2022-11-30T06:42:43;2.88;;;1.05;;
68866;SDS011;56451;44.804;20.476;2022-11-30T06:45:09;1.67;;;0.90;;
68866;SDS011;56451;44.804;20.476;2022-11-30T06:47:39;1.85;;;0.77;;
68866;SDS011;56451;44.804;20.476;2022-11-30T06:50:09;2.90;;;1.02;;
68866;SDS011;56451;44.804;20.476;2022-11-30T06:52:42;2.13;;;0.80;;
68866;SDS011;56451;44.804;20.476;2022-11-30T06:55:15;2.58;;;1.10;;
68866;SDS011;56451;44.804;20.476;2022-11-30T06:57:46;3.15;;;1.33;;
68866;SDS011;56451;44.804;20.476;2022-11-30T07:03:26;1.70;;;0.80;;
68866;SDS011;56451;44.804;20.476;2022-11-30T07:06:11;3.30;;;1.47;;
68866;SDS011;56451;44.804;20.476;2022-11-30T07:09:01;3.72;;;1.48;;
68866;SDS011;56451;44.804;20.476;2022-11-30T07:11:32;3.03;;;1.20;;
68866;SDS011;56451;44.804;20.476;2022-11-30T07:14:05;3.40;;;1.38;;
68866;SDS011;56451;44.804;20.476;2022-11-30T07:16:51;3.45;;;1.40;;
68866;SDS011;56451;44.804;20.476;2022-11-30T07:19:45;2.97;;;0.87;;
68866;SDS011;56451;44.804;20.476;2022-11-30T07:22:45;3.75;;;1.60;;
68866;SDS011;56451;44.804;20.476;2022-11-30T07:25:24;3.22;;;1.30;;
68866;SDS011;56451;44.804;20.476;2022-11-30T07:28:45;4.63;;;2.00;;
68866;SDS011;56451;44.804;20.476;2022-11-30T07:31:34;3.60;;;1.60;;
68866;SDS011;56451;44.804;20.476;2022-11-30T07:34:29;3.57;;;0.90;;
68866;SDS011;56451;44.804;20.476;2022-11-30T07:37:01;2.03;;;0.80;;
68866;SDS011;56451;44.804;20.476;2022-11-30T07:39:49;3.83;;;1.00;;
68866;SDS011;56451;44.804;20.476;2022-11-30T07:42:18;4.15;;;1.00;;
68866;SDS011;56451;44.804;20.476;2022-11-30T07:44:46;12.07;;;1.48;;
68866;SDS011;56451;44.804;20.476;2022-11-30T07:47:21;1.93;;;0.90;;
68866;SDS011;56451;44.804;20.476;2022-11-30T07:53:02;3.83;;;0.98;;
68866;SDS011;56451;44.804;20.476;2022-11-30T07:56:07;2.75;;;1.10;;
68866;SDS011;56451;44.804;20.476;2022-11-30T07:58:37;2.65;;;0.93;;
68866;SDS011;56451;44.804;20.476;2022-11-30T08:01:12;3.27;;;1.10;;
68866;SDS011;56451;44.804;20.476;2022-11-30T08:03:42;3.22;;;1.23;;
68866;SDS011;56451;44.804;20.476;2022-11-30T08:06:13;3.15;;;1.40;;
68866;SDS011;56451;44.804;20.476;2022-11-30T08:08:50;5.63;;;1.95;;
68866;SDS011;56451;44.804;20.476;2022-11-30T08:11:19;4.32;;;2.03;;
68866;SDS011;56451;44.804;20.476;2022-11-30T08:13:48;4.37;;;1.80;;
68866;SDS011;56451;44.804;20.476;2022-11-30T08:16:15;5.07;;;1.58;;
68866;SDS011;56451;44.804;20.476;2022-11-30T08:18:45;5.15;;;1.83;;
68866;SDS011;56451;44.804;20.476;2022-11-30T08:21:13;4.90;;;1.60;;
68866;SDS011;56451;44.804;20.476;2022-11-30T08:23:44;5.15;;;1.90;;
68866;SDS011;56451;44.804;20.476;2022-11-30T08:26:19;3.90;;;1.67;;
68866;SDS011;56451;44.804;20.476;2022-11-30T08:28:47;4.18;;;1.73;;
68866;SDS011;56451;44.804;20.476;2022-11-30T08:31:15;5.18;;;2.05;;
68866;SDS011;56451;44.804;20.476;2022-11-30T08:33:45;4.43;;;1.73;;
68866;SDS011;56451;44.804;20.476;2022-11-30T08:36:13;3.65;;;1.63;;
68866;SDS011;56451;44.804;20.476;2022-11-30T08:38:41;3.80;;;1.80;;
68866;SDS011;56451;44.804;20.476;2022-11-30T08:41:09;3.05;;;1.77;;
68866;SDS011;56451;44.804;20.476;2022-11-30T08:43:37;5.68;;;1.80;;
68866;SDS011;56451;44.804;20.476;2022-11-30T08:46:05;3.83;;;1.70;;
68866;SDS011;56451;44.804;20.476;2022-11-30T08:48:32;3.03;;;2.00;;
68866;SDS011;56451;44.804;20.476;2022-11-30T08:51:03;4.90;;;2.10;;
68866;SDS011;56451;44.804;20.476;2022-11-30T08:53:30;2.20;;;0.95;;
68866;SDS011;56451;44.804;20.476;2022-11-30T08:56:01;3.60;;;1.02;;
68866;SDS011;56451;44.804;20.476;2022-11-30T08:58:30;3.47;;;1.38;;
68866;SDS011;56451;44.804;20.476;2022-11-30T09:01:08;2.58;;;1.15;;
68866;SDS011;56451;44.804;20.476;2022-11-30T09:03:45;2.53;;;0.90;;
68866;SDS011;56451;44.804;20.476;2022-11-30T09:06:19;2.67;;;1.10;;
68866;SDS011;56451;44.804;20.476;2022-11-30T09:08:47;2.35;;;0.93;;
68866;SDS011;56451;44.804;20.476;2022-11-30T09:11:19;3.08;;;1.17;;
68866;SDS011;56451;44.804;20.476;2022-11-30T09:13:47;2.45;;;1.00;;
68866;SDS011;56451;44.804;20.476;2022-11-30T09:16:14;2.97;;;1.20;;
68866;SDS011;56451;44.804;20.476;2022-11-30T09:18:42;3.08;;;1.10;;
68866;SDS011;56451;44.804;20.476;2022-11-30T09:21:10;3.95;;;1.23;;
68866;SDS011;56451;44.804;20.476;2022-11-30T09:23:38;4.05;;;1.40;;
68866;SDS011;56451;44.804;20.476;2022-11-30T09:26:06;3.15;;;1.15;;
68866;SDS011;56451;44.804;20.476;2022-11-30T09:28:33;5.47;;;1.40;;
68866;SDS011;56451;44.804;20.476;2022-11-30T09:31:01;6.32;;;1.40;;
68866;SDS011;56451;44.804;20.476;2022-11-30T09:33:27;2.58;;;1.27;;
68866;SDS011;56451;44.804;20.476;2022-11-30T09:35:55;2.40;;;1.00;;
68866;SDS011;56451;44.804;20.476;2022-11-30T09:38:25;3.90;;;1.45;;
68866;SDS011;56451;44.804;20.476;2022-11-30T09:41:03;5.23;;;1.50;;
68866;SDS011;56451;44.804;20.476;2022-11-30T09:46:32;4.43;;;1.92;;
68866;SDS011;56451;44.804;20.476;2022-11-30T09:49:11;4.05;;;1.38;;
68866;SDS011;56451;44.804;20.476;2022-11-30T09:51:49;3.00;;;1.25;;
68866;SDS011;56451;44.804;20.476;2022-11-30T09:54:20;3.40;;;1.53;;
68866;SDS011;56451;44.804;20.476;2022-11-30T09:57:22;2.97;;;1.27;;
68866;SDS011;56451;44.804;20.476;2022-11-30T09:59:55;4.85;;;1.83;;
68866;SDS011;56451;44.804;20.476;2022-11-30T10:02:29;3.13;;;1.58;;
68866;SDS011;56451;44.804;20.476;2022-11-30T10:04:57;4.40;;;1.55;;
68866;SDS011;56451;44.804;20.476;2022-11-30T10:10:39;3.63;;;1.42;;
68866;SDS011;56451;44.804;20.476;2022-11-30T10:27:36;3.33;;;1.58;;
68866;SDS011;56451;44.804;20.476;2022-11-30T10:30:20;2.55;;;1.30;;
68866;SDS011;56451;44.804;20.476;2022-11-30T10:32:50;3.53;;;1.70;;
68866;SDS011;56451;44.804;20.476;2022-11-30T10:35:25;6.00;;;1.80;;
68866;SDS011;56451;44.804;20.476;2022-11-30T10:37:54;3.25;;;1.20;;
68866;SDS011;56451;44.804;20.476;2022-11-30T10:40:25;3.30;;;1.15;;
68866;SDS011;56451;44.804;20.476;2022-11-30T10:45:47;4.03;;;1.50;;
68866;SDS011;56451;44.804;20.476;2022-11-30T10:48:16;2.80;;;1.30;;
68866;SDS011;56451;44.804;20.476;2022-11-30T10:50:57;4.35;;;1.52;;
68866;SDS011;56451;44.804;20.476;2022-11-30T10:53:26;3.20;;;1.55;;
68866;SDS011;56451;44.804;20.476;2022-11-30T10:55:57;3.60;;;1.40;;
68866;SDS011;56451;44.804;20.476;2022-11-30T11:03:31;6.80;;;2.20;;
68866;SDS011;56451;44.804;20.476;2022-11-30T11:06:02;3.92;;;2.00;;
68866;SDS011;56451;44.804;20.476;2022-11-30T11:08:33;3.67;;;1.88;;
68866;SDS011;56451;44.804;20.476;2022-11-30T11:10:59;6.15;;;1.67;;
68866;SDS011;56451;44.804;20.476;2022-11-30T11:13:36;6.23;;;2.20;;
68866;SDS011;56451;44.804;20.476;2022-11-30T11:16:06;4.93;;;2.47;;
68866;SDS011;56451;44.804;20.476;2022-11-30T11:18:34;4.50;;;2.10;;
68866;SDS011;56451;44.804;20.476;2022-11-30T11:21:03;4.97;;;2.03;;
68866;SDS011;56451;44.804;20.476;2022-11-30T11:23:38;4.90;;;2.88;;
68866;SDS011;56451;44.804;20.476;2022-11-30T11:26:08;3.13;;;1.60;;
68866;SDS011;56451;44.804;20.476;2022-11-30T11:28:51;6.15;;;2.05;;
68866;SDS011;56451;44.804;20.476;2022-11-30T11:31:35;4.45;;;1.90;;
68866;SDS011;56451;44.804;20.476;2022-11-30T11:34:51;3.75;;;2.20;;
68866;SDS011;56451;44.804;20.476;2022-11-30T11:37:06;4.80;;;1.70;;
68866;SDS011;56451;44.804;20.476;2022-11-30T11:40:04;5.07;;;2.23;;
68866;SDS011;56451;44.804;20.476;2022-11-30T11:42:35;5.70;;;2.20;;
68866;SDS011;56451;44.804;20.476;2022-11-30T11:45:20;4.78;;;2.55;;
68866;SDS011;56451;44.804;20.476;2022-11-30T11:48:01;5.03;;;2.40;;
68866;SDS011;56451;44.804;20.476;2022-11-30T11:50:57;3.88;;;2.40;;
68866;SDS011;56451;44.804;20.476;2022-11-30T11:56:19;6.60;;;2.90;;
68866;SDS011;56451;44.804;20.476;2022-11-30T11:58:57;6.72;;;2.95;;
68866;SDS011;56451;44.804;20.476;2022-11-30T12:04:41;4.93;;;2.45;;
68866;SDS011;56451;44.804;20.476;2022-11-30T12:07:31;3.90;;;2.20;;
68866;SDS011;56451;44.804;20.476;2022-11-30T12:12:29;6.60;;;3.95;;
68866;SDS011;56451;44.804;20.476;2022-11-30T12:14:55;6.05;;;3.00;;
68866;SDS011;56451;44.804;20.476;2022-11-30T12:20:22;5.80;;;2.80;;
68866;SDS011;56451;44.804;20.476;2022-11-30T12:38:48;6.78;;;4.28;;
68866;SDS011;56451;44.804;20.476;2022-11-30T13:00:28;6.70;;;3.67;;
68866;SDS011;56451;44.804;20.476;2022-11-30T13:04:01;5.53;;;3.55;;
68866;SDS011;56451;44.804;20.476;2022-11-30T13:06:27;5.60;;;3.20;;
68866;SDS011;56451;44.804;20.476;2022-11-30T13:09:12;6.35;;;2.90;;
68866;SDS011;56451;44.804;20.476;2022-11-30T13:11:48;5.15;;;2.70;;
68866;SDS011;56451;44.804;20.476;2022-11-30T13:14:23;5.20;;;2.80;;
68866;SDS011;56451;44.804;20.476;2022-11-30T13:17:01;5.15;;;2.75;;
68866;SDS011;56451;44.804;20.476;2022-11-30T13:25:01;4.57;;;2.78;;
68866;SDS011;56451;44.804;20.476;2022-11-30T13:27:39;3.57;;;2.20;;
68866;SDS011;56451;44.804;20.476;2022-11-30T13:35:58;5.05;;;2.63;;
68866;SDS011;56451;44.804;20.476;2022-11-30T13:38:29;5.18;;;3.08;;
68866;SDS011;56451;44.804;20.476;2022-11-30T13:40:59;4.37;;;2.87;;
68866;SDS011;56451;44.804;20.476;2022-11-30T13:43:30;4.72;;;2.53;;
68866;SDS011;56451;44.804;20.476;2022-11-30T13:46:04;4.97;;;2.47;;
68866;SDS011;56451;44.804;20.476;2022-11-30T13:48:38;4.10;;;2.78;;
68866;SDS011;56451;44.804;20.476;2022-11-30T13:51:06;3.75;;;2.55;;
68866;SDS011;56451;44.804;20.476;2022-11-30T13:53:33;3.93;;;2.50;;
68866;SDS011;56451;44.804;20.476;2022-11-30T13:56:02;5.35;;;2.58;;
68866;SDS011;56451;44.804;20.476;2022-11-30T14:13:02;5.10;;;2.60;;
68866;SDS011;56451;44.804;20.476;2022-11-30T14:17:56;18.23;;;7.97;;
68866;SDS011;56451;44.804;20.476;2022-11-30T14:20:23;9.40;;;5.33;;
68866;SDS011;56451;44.804;20.476;2022-11-30T14:22:57;6.90;;;4.35;;
68866;SDS011;56451;44.804;20.476;2022-11-30T14:25:27;7.28;;;4.40;;
68866;SDS011;56451;44.804;20.476;2022-11-30T14:27:53;7.65;;;4.68;;
68866;SDS011;56451;44.804;20.476;2022-11-30T14:30:22;6.28;;;4.22;;
68866;SDS011;56451;44.804;20.476;2022-11-30T14:32:50;5.70;;;3.23;;
68866;SDS011;56451;44.804;20.476;2022-11-30T14:35:31;6.38;;;3.30;;
68866;SDS011;56451;44.804;20.476;2022-11-30T14:37:58;5.53;;;3.22;;
68866;SDS011;56451;44.804;20.476;2022-11-30T14:40:26;7.80;;;3.95;;
68866;SDS011;56451;44.804;20.476;2022-11-30T14:42:57;9.88;;;5.00;;
68866;SDS011;56451;44.804;20.476;2022-11-30T14:45:27;5.57;;;3.20;;
68866;SDS011;56451;44.804;20.476;2022-11-30T14:48:09;8.82;;;4.65;;
68866;SDS011;56451;44.804;20.476;2022-11-30T14:50:42;6.82;;;3.67;;
68866;SDS011;56451;44.804;20.476;2022-11-30T14:59:00;5.67;;;3.53;;
68866;SDS011;56451;44.804;20.476;2022-11-30T15:01:34;10.43;;;5.55;;
68866;SDS011;56451;44.804;20.476;2022-11-30T15:04:09;6.70;;;3.90;;
68866;SDS011;56451;44.804;20.476;2022-11-30T15:06:38;6.32;;;3.30;;
68866;SDS011;56451;44.804;20.476;2022-11-30T15:09:11;7.32;;;4.45;;
68866;SDS011;56451;44.804;20.476;2022-11-30T15:11:41;6.67;;;3.97;;
68866;SDS011;56451;44.804;20.476;2022-11-30T15:14:09;6.00;;;3.60;;
68866;SDS011;56451;44.804;20.476;2022-11-30T15:16:36;10.30;;;4.47;;
68866;SDS011;56451;44.804;20.476;2022-11-30T15:21:54;7.78;;;4.70;;
68866;SDS011;56451;44.804;20.476;2022-11-30T15:24:21;6.37;;;4.23;;
68866;SDS011;56451;44.804;20.476;2022-11-30T15:26:58;6.90;;;4.72;;
68866;SDS011;56451;44.804;20.476;2022-11-30T15:29:33;6.45;;;4.43;;
68866;SDS011;56451;44.804;20.476;2022-11-30T15:32:20;7.80;;;4.20;;
68866;SDS011;56451;44.804;20.476;2022-11-30T15:34:52;6.40;;;3.90;;
68866;SDS011;56451;44.804;20.476;2022-11-30T15:37:20;7.67;;;3.73;;
68866;SDS011;56451;44.804;20.476;2022-11-30T15:39:54;8.13;;;4.50;;
68866;SDS011;56451;44.804;20.476;2022-11-30T15:42:32;7.55;;;3.70;;
68866;SDS011;56451;44.804;20.476;2022-11-30T15:45:21;6.32;;;3.42;;
68866;SDS011;56451;44.804;20.476;2022-11-30T15:47:49;6.25;;;4.10;;
68866;SDS011;56451;44.804;20.476;2022-11-30T15:50:29;6.03;;;3.70;;
68866;SDS011;56451;44.804;20.476;2022-11-30T15:55:51;7.65;;;4.15;;
68866;SDS011;56451;44.804;20.476;2022-11-30T16:04:19;6.90;;;3.80;;
68866;SDS011;56451;44.804;20.476;2022-11-30T16:06:21;6.95;;;3.40;;
68866;SDS011;56451;44.804;20.476;2022-11-30T16:08:48;8.88;;;3.55;;
68866;SDS011;56451;44.804;20.476;2022-11-30T16:11:15;6.53;;;3.55;;
68866;SDS011;56451;44.804;20.476;2022-11-30T16:13:42;6.70;;;3.92;;
68866;SDS011;56451;44.804;20.476;2022-11-30T16:16:22;5.50;;;2.90;;
68866;SDS011;56451;44.804;20.476;2022-11-30T16:18:52;6.70;;;3.40;;
68866;SDS011;56451;44.804;20.476;2022-11-30T16:21:18;8.18;;;3.40;;
68866;SDS011;56451;44.804;20.476;2022-11-30T16:23:45;6.45;;;3.53;;
68866;SDS011;56451;44.804;20.476;2022-11-30T16:26:13;5.85;;;2.88;;
68866;SDS011;56451;44.804;20.476;2022-11-30T16:28:42;5.43;;;3.13;;
68866;SDS011;56451;44.804;20.476;2022-11-30T16:31:12;5.95;;;3.00;;
68866;SDS011;56451;44.804;20.476;2022-11-30T16:33:40;4.50;;;3.22;;
68866;SDS011;56451;44.804;20.476;2022-11-30T16:36:07;5.18;;;3.42;;
68866;SDS011;56451;44.804;20.476;2022-11-30T16:38:38;7.50;;;3.65;;
68866;SDS011;56451;44.804;20.476;2022-11-30T16:41:20;7.35;;;2.88;;
68866;SDS011;56451;44.804;20.476;2022-11-30T16:43:48;6.38;;;2.90;;
68866;SDS011;56451;44.804;20.476;2022-11-30T16:46:17;5.63;;;2.90;;
68866;SDS011;56451;44.804;20.476;2022-11-30T16:48:45;5.22;;;3.05;;
68866;SDS011;56451;44.804;20.476;2022-11-30T16:51:12;5.80;;;2.57;;
68866;SDS011;56451;44.804;20.476;2022-11-30T16:53:50;4.32;;;2.45;;
68866;SDS011;56451;44.804;20.476;2022-11-30T16:56:16;4.13;;;2.10;;
68866;SDS011;56451;44.804;20.476;2022-11-30T16:58:43;7.22;;;2.38;;
68866;SDS011;56451;44.804;20.476;2022-11-30T17:01:12;3.78;;;2.08;;
68866;SDS011;56451;44.804;20.476;2022-11-30T17:03:43;3.37;;;2.20;;
68866;SDS011;56451;44.804;20.476;2022-11-30T17:06:13;4.88;;;2.28;;
68866;SDS011;56451;44.804;20.476;2022-11-30T17:08:43;5.53;;;2.20;;
68866;SDS011;56451;44.804;20.476;2022-11-30T17:11:20;5.53;;;2.92;;
68866;SDS011;56451;44.804;20.476;2022-11-30T17:13:51;5.32;;;2.63;;
68866;SDS011;56451;44.804;20.476;2022-11-30T17:16:17;4.40;;;2.30;;
68866;SDS011;56451;44.804;20.476;2022-11-30T17:18:43;6.03;;;2.85;;
68866;SDS011;56451;44.804;20.476;2022-11-30T17:21:10;5.85;;;2.42;;
68866;SDS011;56451;44.804;20.476;2022-11-30T17:23:40;5.32;;;2.75;;
68866;SDS011;56451;44.804;20.476;2022-11-30T17:26:06;5.73;;;2.90;;
68866;SDS011;56451;44.804;20.476;2022-11-30T17:28:32;5.65;;;2.80;;
68866;SDS011;56451;44.804;20.476;2022-11-30T17:30:59;4.90;;;2.90;;
68866;SDS011;56451;44.804;20.476;2022-11-30T17:33:28;5.65;;;3.38;;
68866;SDS011;56451;44.804;20.476;2022-11-30T17:35:55;11.57;;;5.50;;
68866;SDS011;56451;44.804;20.476;2022-11-30T17:38:26;6.30;;;3.67;;
68866;SDS011;56451;44.804;20.476;2022-11-30T17:40:52;6.95;;;2.90;;
68866;SDS011;56451;44.804;20.476;2022-11-30T17:43:19;7.80;;;3.33;;
68866;SDS011;56451;44.804;20.476;2022-11-30T17:45:46;4.95;;;3.08;;
68866;SDS011;56451;44.804;20.476;2022-11-30T17:48:12;5.47;;;3.35;;
68866;SDS011;56451;44.804;20.476;2022-11-30T17:50:40;7.38;;;4.25;;